sensor_id;sensor_type;location;lat;lon;timestamp;pressure;altitude;pressure_sealevel;temperature;humidity
35900;BME280;21998;44.112;12.318;2022-07-29T07:11:42;101020.00;;;26.63;99.82
35900;BME280;21998;44.112;12.318;2022-07-29T07:14:08;101018.78;;;26.76;98.88
35900;BME280;21998;44.112;12.318;2022-07-29T07:16:34;101022.91;;;26.90;99.07
35900;BME280;21998;44.112;12.318;2022-07-29T07:19:00;101018.00;;;27.04;98.22
35900;BME280;21998;44.112;12.318;2022-07-29T07:42:58;101016.59;;;27.80;92.60
35900;BME280;21998;44.112;12.318;2022-07-29T07:45:24;101021.56;;;27.94;92.08
35900;BME280;21998;44.112;12.318;2022-07-29T07:47:50;101027.50;;;28.07;92.13
35900;BME280;21998;44.112;12.318;2022-07-29T07:50:16;101028.63;;;28.27;92.39
35900;BME280;21998;44.112;12.318;2022-07-29T08:10:19;101016.47;;;29.16;83.68
35900;BME280;21998;44.112;12.318;2022-07-29T08:13:04;101024.81;;;29.35;83.10
35900;BME280;21998;44.112;12.318;2022-07-29T08:15:30;101027.84;;;29.50;83.85
35900;BME280;21998;44.112;12.318;2022-07-29T08:17:55;101026.69;;;29.56;79.51
35900;BME280;21998;44.112;12.318;2022-07-29T08:32:06;101024.75;;;30.05;75.28
35900;BME280;21998;44.112;12.318;2022-07-29T08:34:32;101020.78;;;30.14;75.04
35900;BME280;21998;44.112;12.318;2022-07-29T08:36:58;101018.19;;;30.11;74.25
35900;BME280;21998;44.112;12.318;2022-07-29T08:39:24;101012.22;;;30.45;71.88
35900;BME280;21998;44.112;12.318;2022-07-29T08:41:51;101013.31;;;30.62;71.93
35900;BME280;21998;44.112;12.318;2022-07-29T08:47:50;101009.72;;;30.82;69.47
35900;BME280;21998;44.112;12.318;2022-07-29T08:50:16;101005.91;;;31.07;68.70
35900;BME280;21998;44.112;12.318;2022-07-29T08:52:41;101009.50;;;31.07;65.18
35900;BME280;21998;44.112;12.318;2022-07-29T08:55:09;101004.84;;;31.11;67.18
35900;BME280;21998;44.112;12.318;2022-07-29T08:57:35;101003.38;;;31.23;66.78
35900;BME280;21998;44.112;12.318;2022-07-29T09:00:03;101009.38;;;31.30;66.57
35900;BME280;21998;44.112;12.318;2022-07-29T09:02:35;100994.31;;;31.43;65.48
35900;BME280;21998;44.112;12.318;2022-07-29T09:05:04;100992.13;;;31.32;62.49
35900;BME280;21998;44.112;12.318;2022-07-29T09:07:31;100993.28;;;31.46;62.56
35900;BME280;21998;44.112;12.318;2022-07-29T09:09:58;100989.63;;;31.47;60.83
35900;BME280;21998;44.112;12.318;2022-07-29T09:12:24;100988.84;;;31.62;62.28
35900;BME280;21998;44.112;12.318;2022-07-29T09:14:51;100996.84;;;31.84;60.53
35900;BME280;21998;44.112;12.318;2022-07-29T09:17:17;100995.59;;;32.09;61.60
35900;BME280;21998;44.112;12.318;2022-07-29T09:19:44;100990.22;;;32.27;58.31
35900;BME280;21998;44.112;12.318;2022-07-29T09:22:10;100991.09;;;32.27;57.48
35900;BME280;21998;44.112;12.318;2022-07-29T09:24:45;100985.44;;;31.95;54.69
35900;BME280;21998;44.112;12.318;2022-07-29T09:29:45;100976.63;;;32.44;53.82
35900;BME280;21998;44.112;12.318;2022-07-29T09:32:11;100971.38;;;32.41;53.37
35900;BME280;21998;44.112;12.318;2022-07-29T09:34:37;100967.03;;;32.54;53.03
35900;BME280;21998;44.112;12.318;2022-07-29T09:37:03;100969.97;;;32.85;54.04
35900;BME280;21998;44.112;12.318;2022-07-29T09:39:36;100972.09;;;32.96;56.04
35900;BME280;21998;44.112;12.318;2022-07-29T09:42:04;100958.09;;;33.20;55.35
35900;BME280;21998;44.112;12.318;2022-07-29T09:44:49;100960.09;;;33.16;53.21
35900;BME280;21998;44.112;12.318;2022-07-29T09:47:17;100962.56;;;33.21;53.48
35900;BME280;21998;44.112;12.318;2022-07-29T09:49:57;100952.84;;;33.64;52.80
35900;BME280;21998;44.112;12.318;2022-07-29T09:52:24;100959.72;;;33.56;50.78
35900;BME280;21998;44.112;12.318;2022-07-29T09:54:50;100964.44;;;33.68;50.75
35900;BME280;21998;44.112;12.318;2022-07-29T09:57:25;100961.09;;;33.31;52.13
35900;BME280;21998;44.112;12.318;2022-07-29T10:02:34;100951.06;;;33.95;48.41
35900;BME280;21998;44.112;12.318;2022-07-29T10:05:02;100953.59;;;33.83;47.75
35900;BME280;21998;44.112;12.318;2022-07-29T10:07:52;100946.84;;;33.90;49.09
35900;BME280;21998;44.112;12.318;2022-07-29T10:10:21;100948.84;;;34.33;48.06
35900;BME280;21998;44.112;12.318;2022-07-29T10:12:57;100941.88;;;34.12;46.99
35900;BME280;21998;44.112;12.318;2022-07-29T10:15:24;100941.22;;;34.68;44.93
35900;BME280;21998;44.112;12.318;2022-07-29T10:17:51;100937.41;;;34.85;43.94
35900;BME280;21998;44.112;12.318;2022-07-29T10:20:17;100941.09;;;34.70;44.54
35900;BME280;21998;44.112;12.318;2022-07-29T10:22:43;100933.88;;;34.83;45.11
35900;BME280;21998;44.112;12.318;2022-07-29T10:25:12;100931.09;;;34.56;45.31
35900;BME280;21998;44.112;12.318;2022-07-29T10:27:38;100933.41;;;34.77;45.63
35900;BME280;21998;44.112;12.318;2022-07-29T10:30:06;100927.41;;;35.00;46.59
35900;BME280;21998;44.112;12.318;2022-07-29T10:32:54;100919.91;;;34.89;46.96
35900;BME280;21998;44.112;12.318;2022-07-29T10:41:24;100911.78;;;35.17;54.14
35900;BME280;21998;44.112;12.318;2022-07-29T10:44:00;100913.94;;;35.12;54.95
35900;BME280;21998;44.112;12.318;2022-07-29T10:46:27;100918.75;;;34.34;58.53
35900;BME280;21998;44.112;12.318;2022-07-29T10:49:10;100910.56;;;34.94;57.09
35900;BME280;21998;44.112;12.318;2022-07-29T10:51:53;100913.06;;;34.53;58.97
35900;BME280;21998;44.112;12.318;2022-07-29T10:54:47;100906.03;;;33.74;61.60
35900;BME280;21998;44.112;12.318;2022-07-29T10:57:21;100914.00;;;33.77;62.64
35900;BME280;21998;44.112;12.318;2022-07-29T10:59:49;100913.56;;;34.60;61.31
35900;BME280;21998;44.112;12.318;2022-07-29T11:07:35;100910.69;;;35.19;56.40
35900;BME280;21998;44.112;12.318;2022-07-29T11:10:21;100907.47;;;35.27;56.05
35900;BME280;21998;44.112;12.318;2022-07-29T11:12:47;100916.28;;;35.03;55.47
35900;BME280;21998;44.112;12.318;2022-07-29T11:15:15;100907.66;;;35.38;57.40
35900;BME280;21998;44.112;12.318;2022-07-29T11:20:43;100902.75;;;34.73;56.34
35900;BME280;21998;44.112;12.318;2022-07-29T11:23:42;100898.84;;;35.06;55.86
35900;BME280;21998;44.112;12.318;2022-07-29T11:31:39;100901.53;;;34.34;57.33
35900;BME280;21998;44.112;12.318;2022-07-29T11:39:35;100903.38;;;34.33;57.08
35900;BME280;21998;44.112;12.318;2022-07-29T11:45:07;100908.13;;;34.89;55.68
35900;BME280;21998;44.112;12.318;2022-07-29T11:47:41;100898.78;;;34.64;56.31
35900;BME280;21998;44.112;12.318;2022-07-29T11:50:13;100901.09;;;34.70;55.36
35900;BME280;21998;44.112;12.318;2022-07-29T11:52:45;100897.19;;;34.60;55.95
35900;BME280;21998;44.112;12.318;2022-07-29T11:55:19;100894.06;;;34.95;55.93
35900;BME280;21998;44.112;12.318;2022-07-29T11:57:59;100905.41;;;35.31;54.24
35900;BME280;21998;44.112;12.318;2022-07-29T12:00:37;100898.75;;;35.08;53.53
35900;BME280;21998;44.112;12.318;2022-07-29T12:03:09;100896.38;;;35.16;53.29
35900;BME280;21998;44.112;12.318;2022-07-29T12:05:44;100888.00;;;35.19;52.34
35900;BME280;21998;44.112;12.318;2022-07-29T12:08:13;100889.13;;;35.29;52.32
35900;BME280;21998;44.112;12.318;2022-07-29T12:10:40;100892.59;;;36.00;49.85
35900;BME280;21998;44.112;12.318;2022-07-29T12:13:06;100899.22;;;35.96;49.75
35900;BME280;21998;44.112;12.318;2022-07-29T12:15:33;100898.44;;;35.54;51.69
35900;BME280;21998;44.112;12.318;2022-07-29T12:20:38;100888.72;;;35.90;49.23
35900;BME280;21998;44.112;12.318;2022-07-29T12:23:06;100896.44;;;35.83;48.97
35900;BME280;21998;44.112;12.318;2022-07-29T12:25:35;100898.25;;;35.70;48.99
35900;BME280;21998;44.112;12.318;2022-07-29T12:28:05;100878.41;;;35.68;48.52
35900;BME280;21998;44.112;12.318;2022-07-29T12:30:39;100876.47;;;35.83;48.16
35900;BME280;21998;44.112;12.318;2022-07-29T12:33:27;100881.00;;;35.97;48.16
35900;BME280;21998;44.112;12.318;2022-07-29T12:35:57;100878.28;;;35.69;48.04
35900;BME280;21998;44.112;12.318;2022-07-29T12:38:25;100870.06;;;35.97;47.28
35900;BME280;21998;44.112;12.318;2022-07-29T12:40:52;100862.22;;;35.65;48.37
35900;BME280;21998;44.112;12.318;2022-07-29T12:43:23;100857.47;;;34.99;49.14
35900;BME280;21998;44.112;12.318;2022-07-29T12:45:54;100851.31;;;35.10;49.38
35900;BME280;21998;44.112;12.318;2022-07-29T12:48:37;100854.97;;;35.36;47.76
35900;BME280;21998;44.112;12.318;2022-07-29T12:51:05;100848.53;;;35.25;49.17
35900;BME280;21998;44.112;12.318;2022-07-29T12:53:33;100850.59;;;35.21;48.75
35900;BME280;21998;44.112;12.318;2022-07-29T12:56:00;100850.63;;;35.61;47.25
35900;BME280;21998;44.112;12.318;2022-07-29T12:58:40;100864.81;;;35.66;47.58
35900;BME280;21998;44.112;12.318;2022-07-29T13:01:09;100850.66;;;35.74;47.37
35900;BME280;21998;44.112;12.318;2022-07-29T13:03:52;100841.03;;;35.68;47.19
35900;BME280;21998;44.112;12.318;2022-07-29T13:06:36;100840.91;;;35.57;47.52
35900;BME280;21998;44.112;12.318;2022-07-29T13:09:15;100844.84;;;36.19;46.72
35900;BME280;21998;44.112;12.318;2022-07-29T13:11:44;100849.75;;;35.33;47.83
35900;BME280;21998;44.112;12.318;2022-07-29T13:14:36;100860.94;;;35.43;47.48
35900;BME280;21998;44.112;12.318;2022-07-29T13:17:02;100869.75;;;34.78;50.63
35900;BME280;21998;44.112;12.318;2022-07-29T13:19:36;100853.47;;;34.47;50.66
35900;BME280;21998;44.112;12.318;2022-07-29T13:22:03;100850.03;;;34.00;52.76
35900;BME280;21998;44.112;12.318;2022-07-29T13:24:29;100882.59;;;33.71;54.05
35900;BME280;21998;44.112;12.318;2022-07-29T13:26:56;100910.69;;;33.24;55.88
35900;BME280;21998;44.112;12.318;2022-07-29T13:29:21;100918.84;;;33.24;56.20
35900;BME280;21998;44.112;12.318;2022-07-29T13:31:47;100933.38;;;32.57;58.65
35900;BME280;21998;44.112;12.318;2022-07-29T13:34:13;100954.88;;;32.09;60.47
35900;BME280;21998;44.112;12.318;2022-07-29T13:36:39;100950.78;;;32.00;62.01
35900;BME280;21998;44.112;12.318;2022-07-29T13:39:05;100955.31;;;31.82;62.63
35900;BME280;21998;44.112;12.318;2022-07-29T13:41:31;100949.81;;;31.84;63.44
35900;BME280;21998;44.112;12.318;2022-07-29T13:43:57;100949.16;;;31.42;62.02
35900;BME280;21998;44.112;12.318;2022-07-29T13:46:23;100939.00;;;31.07;73.42
35900;BME280;21998;44.112;12.318;2022-07-29T13:48:48;100939.75;;;31.11;95.91
35900;BME280;21998;44.112;12.318;2022-07-29T13:51:14;100942.13;;;30.38;100.00
35900;BME280;21998;44.112;12.318;2022-07-29T13:53:39;100909.63;;;29.96;90.23
35900;BME280;21998;44.112;12.318;2022-07-29T13:56:05;100883.66;;;29.92;96.97
35900;BME280;21998;44.112;12.318;2022-07-29T13:58:32;100847.56;;;29.04;100.00
35900;BME280;21998;44.112;12.318;2022-07-29T14:00:58;100829.47;;;29.06;100.00
35900;BME280;21998;44.112;12.318;2022-07-29T14:03:24;100822.06;;;28.89;100.00
35900;BME280;21998;44.112;12.318;2022-07-29T14:05:50;100808.47;;;28.91;100.00
35900;BME280;21998;44.112;12.318;2022-07-29T14:08:17;100802.97;;;29.59;100.00
35900;BME280;21998;44.112;12.318;2022-07-29T14:10:43;100799.03;;;30.09;100.00
35900;BME280;21998;44.112;12.318;2022-07-29T14:13:09;100802.22;;;29.76;100.00
35900;BME280;21998;44.112;12.318;2022-07-29T14:15:34;100801.06;;;30.63;100.00
35900;BME280;21998;44.112;12.318;2022-07-29T14:18:01;100793.66;;;31.05;100.00
35900;BME280;21998;44.112;12.318;2022-07-29T14:20:26;100796.47;;;30.84;100.00
35900;BME280;21998;44.112;12.318;2022-07-29T14:22:55;100794.09;;;31.15;100.00
35900;BME280;21998;44.112;12.318;2022-07-29T14:25:22;100773.94;;;31.55;100.00
35900;BME280;21998;44.112;12.318;2022-07-29T14:27:48;100788.41;;;30.63;100.00
35900;BME280;21998;44.112;12.318;2022-07-29T14:30:14;100791.09;;;30.05;100.00
35900;BME280;21998;44.112;12.318;2022-07-29T14:32:40;100790.88;;;30.49;100.00
35900;BME280;21998;44.112;12.318;2022-07-29T14:35:06;100784.84;;;30.42;100.00
35900;BME280;21998;44.112;12.318;2022-07-29T14:37:33;100786.00;;;30.37;100.00
35900;BME280;21998;44.112;12.318;2022-07-29T14:39:59;100777.75;;;31.16;100.00
35900;BME280;21998;44.112;12.318;2022-07-29T14:42:28;100773.00;;;31.74;99.45
35900;BME280;21998;44.112;12.318;2022-07-29T14:44:54;100777.56;;;31.73;93.31
35900;BME280;21998;44.112;12.318;2022-07-29T14:47:19;100780.34;;;31.89;84.69
35900;BME280;21998;44.112;12.318;2022-07-29T14:49:47;100765.03;;;32.22;81.82
35900;BME280;21998;44.112;12.318;2022-07-29T14:52:12;100757.66;;;32.58;78.55
35900;BME280;21998;44.112;12.318;2022-07-29T14:54:38;100757.56;;;32.43;74.08
35900;BME280;21998;44.112;12.318;2022-07-29T14:57:04;100766.50;;;32.93;80.12
35900;BME280;21998;44.112;12.318;2022-07-29T14:59:30;100770.16;;;33.08;72.00
35900;BME280;21998;44.112;12.318;2022-07-29T15:01:56;100756.56;;;33.55;73.44
35900;BME280;21998;44.112;12.318;2022-07-29T15:04:22;100767.53;;;33.07;66.83
35900;BME280;21998;44.112;12.318;2022-07-29T15:06:48;100771.22;;;33.22;67.68
35900;BME280;21998;44.112;12.318;2022-07-29T15:09:14;100778.03;;;32.49;65.43
35900;BME280;21998;44.112;12.318;2022-07-29T15:11:40;100787.75;;;32.37;67.00
35900;BME280;21998;44.112;12.318;2022-07-29T15:14:06;100796.44;;;32.77;66.93
35900;BME280;21998;44.112;12.318;2022-07-29T15:16:35;100792.75;;;33.41;64.91
35900;BME280;21998;44.112;12.318;2022-07-29T15:19:01;100802.50;;;33.45;68.56
35900;BME280;21998;44.112;12.318;2022-07-29T15:21:27;100787.28;;;34.02;67.78
35900;BME280;21998;44.112;12.318;2022-07-29T15:23:53;100784.28;;;34.35;67.99
35900;BME280;21998;44.112;12.318;2022-07-29T15:26:19;100791.50;;;33.77;62.46
35900;BME280;21998;44.112;12.318;2022-07-29T15:28:45;100800.88;;;33.87;65.35
35900;BME280;21998;44.112;12.318;2022-07-29T15:31:11;100794.22;;;34.22;66.82
35900;BME280;21998;44.112;12.318;2022-07-29T15:33:36;100789.63;;;34.22;64.00
35900;BME280;21998;44.112;12.318;2022-07-29T15:36:02;100776.50;;;34.43;64.08
35900;BME280;21998;44.112;12.318;2022-07-29T15:38:30;100777.59;;;34.83;65.95
35900;BME280;21998;44.112;12.318;2022-07-29T15:40:56;100762.69;;;35.16;64.40
35900;BME280;21998;44.112;12.318;2022-07-29T15:43:22;100766.53;;;34.71;63.29
35900;BME280;21998;44.112;12.318;2022-07-29T15:45:49;100769.94;;;34.75;64.32
35900;BME280;21998;44.112;12.318;2022-07-29T15:48:37;100772.59;;;34.62;64.90
35900;BME280;21998;44.112;12.318;2022-07-29T15:51:04;100773.69;;;34.16;65.94
35900;BME280;21998;44.112;12.318;2022-07-29T15:53:30;100770.16;;;34.00;63.35
35900;BME280;21998;44.112;12.318;2022-07-29T15:55:56;100765.91;;;33.79;62.51
35900;BME280;21998;44.112;12.318;2022-07-29T15:58:22;100761.81;;;33.88;65.54
35900;BME280;21998;44.112;12.318;2022-07-29T16:00:48;100762.56;;;33.90;62.61
35900;BME280;21998;44.112;12.318;2022-07-29T16:03:14;100754.91;;;34.11;62.52
35900;BME280;21998;44.112;12.318;2022-07-29T16:05:41;100748.78;;;33.93;64.09
35900;BME280;21998;44.112;12.318;2022-07-29T16:08:07;100741.47;;;34.37;58.67
35900;BME280;21998;44.112;12.318;2022-07-29T16:10:33;100749.59;;;33.79;60.72
35900;BME280;21998;44.112;12.318;2022-07-29T16:12:59;100746.59;;;33.39;62.87
35900;BME280;21998;44.112;12.318;2022-07-29T16:15:25;100748.59;;;33.05;68.17
35900;BME280;21998;44.112;12.318;2022-07-29T16:17:50;100747.13;;;32.83;67.33
35900;BME280;21998;44.112;12.318;2022-07-29T16:20:16;100736.06;;;32.86;67.38
35900;BME280;21998;44.112;12.318;2022-07-29T16:22:42;100724.03;;;33.07;66.79
35900;BME280;21998;44.112;12.318;2022-07-29T16:25:08;100721.31;;;33.37;65.41
35900;BME280;21998;44.112;12.318;2022-07-29T16:27:34;100727.16;;;33.31;67.07
35900;BME280;21998;44.112;12.318;2022-07-29T16:30:00;100734.34;;;33.32;69.07
35900;BME280;21998;44.112;12.318;2022-07-29T16:32:26;100750.47;;;32.89;69.04
35900;BME280;21998;44.112;12.318;2022-07-29T16:34:52;100756.97;;;33.16;70.44
35900;BME280;21998;44.112;12.318;2022-07-29T16:37:18;100758.06;;;33.44;69.91
35900;BME280;21998;44.112;12.318;2022-07-29T16:39:43;100759.97;;;33.58;67.82
35900;BME280;21998;44.112;12.318;2022-07-29T16:42:09;100769.22;;;33.56;69.55
35900;BME280;21998;44.112;12.318;2022-07-29T16:44:35;100772.66;;;33.74;68.55
35900;BME280;21998;44.112;12.318;2022-07-29T16:47:00;100778.72;;;33.48;67.09
35900;BME280;21998;44.112;12.318;2022-07-29T16:49:26;100785.13;;;33.47;69.67
35900;BME280;21998;44.112;12.318;2022-07-29T16:51:52;100804.25;;;33.30;72.45
35900;BME280;21998;44.112;12.318;2022-07-29T16:54:19;100833.50;;;33.10;71.75
35900;BME280;21998;44.112;12.318;2022-07-29T16:56:45;100853.81;;;32.71;71.85
35900;BME280;21998;44.112;12.318;2022-07-29T16:59:10;100864.19;;;31.78;75.59
35900;BME280;21998;44.112;12.318;2022-07-29T17:01:36;100864.13;;;31.24;79.50
35900;BME280;21998;44.112;12.318;2022-07-29T17:04:02;100849.31;;;30.93;83.86
35900;BME280;21998;44.112;12.318;2022-07-29T17:06:38;100882.94;;;31.27;84.08
35900;BME280;21998;44.112;12.318;2022-07-29T17:09:07;100899.63;;;30.40;57.27
35900;BME280;21998;44.112;12.318;2022-07-29T17:11:33;100901.66;;;29.71;60.01
35900;BME280;21998;44.112;12.318;2022-07-29T17:13:59;100889.88;;;28.82;59.54
35900;BME280;21998;44.112;12.318;2022-07-29T17:16:27;100878.31;;;28.53;62.08
35900;BME280;21998;44.112;12.318;2022-07-29T17:18:55;100872.44;;;27.64;62.75
35900;BME280;21998;44.112;12.318;2022-07-29T17:21:22;100850.56;;;27.99;58.94
35900;BME280;21998;44.112;12.318;2022-07-29T17:23:49;100848.25;;;28.15;59.17
35900;BME280;21998;44.112;12.318;2022-07-29T17:26:15;100834.28;;;28.27;56.87
35900;BME280;21998;44.112;12.318;2022-07-29T17:28:41;100837.31;;;28.18;59.50
35900;BME280;21998;44.112;12.318;2022-07-29T17:31:07;100830.91;;;27.95;63.49
35900;BME280;21998;44.112;12.318;2022-07-29T17:33:33;100820.16;;;27.41;65.32
35900;BME280;21998;44.112;12.318;2022-07-29T17:35:59;100817.09;;;27.25;65.88
35900;BME280;21998;44.112;12.318;2022-07-29T17:38:43;100808.16;;;27.23;65.81
35900;BME280;21998;44.112;12.318;2022-07-29T17:41:09;100798.31;;;26.94;66.57
35900;BME280;21998;44.112;12.318;2022-07-29T17:43:34;100775.34;;;27.10;66.39
35900;BME280;21998;44.112;12.318;2022-07-29T17:46:00;100775.16;;;27.43;64.31
35900;BME280;21998;44.112;12.318;2022-07-29T17:48:26;100773.63;;;27.61;63.05
35900;BME280;21998;44.112;12.318;2022-07-29T17:50:51;100768.53;;;27.79;63.85
35900;BME280;21998;44.112;12.318;2022-07-29T17:53:17;100760.13;;;27.88;62.01
35900;BME280;21998;44.112;12.318;2022-07-29T17:55:44;100757.66;;;28.07;61.28
35900;BME280;21998;44.112;12.318;2022-07-29T17:58:09;100774.25;;;28.20;62.37
35900;BME280;21998;44.112;12.318;2022-07-29T18:00:35;100759.31;;;28.35;63.98
35900;BME280;21998;44.112;12.318;2022-07-29T18:03:01;100770.91;;;28.37;63.90
35900;BME280;21998;44.112;12.318;2022-07-29T18:05:27;100764.63;;;28.37;60.35
35900;BME280;21998;44.112;12.318;2022-07-29T18:07:53;100773.75;;;28.34;58.42
35900;BME280;21998;44.112;12.318;2022-07-29T18:10:21;100768.63;;;28.26;58.58
35900;BME280;21998;44.112;12.318;2022-07-29T18:12:47;100780.66;;;28.18;58.40
35900;BME280;21998;44.112;12.318;2022-07-29T18:15:13;100772.03;;;28.08;60.67
35900;BME280;21998;44.112;12.318;2022-07-29T18:17:39;100776.25;;;28.15;60.77
35900;BME280;21998;44.112;12.318;2022-07-29T18:20:06;100770.00;;;28.15;60.63
35900;BME280;21998;44.112;12.318;2022-07-29T18:22:32;100763.34;;;28.23;61.82
35900;BME280;21998;44.112;12.318;2022-07-29T18:24:57;100771.16;;;28.31;58.69
35900;BME280;21998;44.112;12.318;2022-07-29T18:27:23;100777.00;;;28.19;60.63
35900;BME280;21998;44.112;12.318;2022-07-29T18:29:53;100775.91;;;28.24;58.63
35900;BME280;21998;44.112;12.318;2022-07-29T18:32:20;100784.19;;;28.20;60.11
35900;BME280;21998;44.112;12.318;2022-07-29T18:34:47;100774.25;;;28.20;61.25
35900;BME280;21998;44.112;12.318;2022-07-29T18:37:13;100775.59;;;28.08;57.08
35900;BME280;21998;44.112;12.318;2022-07-29T18:39:39;100768.38;;;28.33;57.42
35900;BME280;21998;44.112;12.318;2022-07-29T18:42:05;100768.91;;;28.19;57.43
35900;BME280;21998;44.112;12.318;2022-07-29T18:44:32;100780.38;;;28.00;57.93
35900;BME280;21998;44.112;12.318;2022-07-29T18:46:59;100774.47;;;27.89;58.93
35900;BME280;21998;44.112;12.318;2022-07-29T18:49:25;100778.00;;;27.91;57.89
35900;BME280;21998;44.112;12.318;2022-07-29T18:51:51;100766.50;;;27.86;57.62
35900;BME280;21998;44.112;12.318;2022-07-29T18:54:18;100769.41;;;27.79;57.25
35900;BME280;21998;44.112;12.318;2022-07-29T18:56:45;100767.00;;;27.72;58.60
35900;BME280;21998;44.112;12.318;2022-07-29T18:59:11;100772.38;;;27.97;57.62
35900;BME280;21998;44.112;12.318;2022-07-29T19:01:42;100779.03;;;27.61;59.26
35900;BME280;21998;44.112;12.318;2022-07-29T19:04:08;100784.00;;;27.74;59.70
35900;BME280;21998;44.112;12.318;2022-07-29T19:06:34;100788.78;;;27.66;62.22
35900;BME280;21998;44.112;12.318;2022-07-29T19:09:00;100779.94;;;27.62;60.71
35900;BME280;21998;44.112;12.318;2022-07-29T19:11:26;100775.84;;;27.50;62.00
35900;BME280;21998;44.112;12.318;2022-07-29T19:13:52;100770.59;;;27.45;62.58
35900;BME280;21998;44.112;12.318;2022-07-29T19:16:18;100772.69;;;27.36;63.50
35900;BME280;21998;44.112;12.318;2022-07-29T19:18:44;100777.75;;;27.46;63.72
35900;BME280;21998;44.112;12.318;2022-07-29T19:21:12;100769.53;;;27.23;65.12
35900;BME280;21998;44.112;12.318;2022-07-29T19:23:39;100779.28;;;27.00;67.22
35900;BME280;21998;44.112;12.318;2022-07-29T19:26:05;100772.78;;;27.06;67.62
35900;BME280;21998;44.112;12.318;2022-07-29T19:28:31;100780.34;;;26.94;69.05
35900;BME280;21998;44.112;12.318;2022-07-29T19:30:57;100784.56;;;27.03;69.33
35900;BME280;21998;44.112;12.318;2022-07-29T19:33:23;100771.44;;;26.92;70.82
35900;BME280;21998;44.112;12.318;2022-07-29T19:35:50;100767.88;;;26.62;73.56
35900;BME280;21998;44.112;12.318;2022-07-29T19:38:16;100767.50;;;26.44;74.81
35900;BME280;21998;44.112;12.318;2022-07-29T19:40:42;100767.09;;;26.58;74.35
35900;BME280;21998;44.112;12.318;2022-07-29T19:43:08;100769.63;;;26.63;74.07
35900;BME280;21998;44.112;12.318;2022-07-29T19:45:35;100777.47;;;26.70;73.92
35900;BME280;21998;44.112;12.318;2022-07-29T19:48:01;100769.09;;;26.81;73.21
35900;BME280;21998;44.112;12.318;2022-07-29T19:50:31;100774.38;;;26.84;73.29
35900;BME280;21998;44.112;12.318;2022-07-29T19:52:58;100775.56;;;26.74;74.17
35900;BME280;21998;44.112;12.318;2022-07-29T19:55:25;100788.03;;;26.78;75.00
35900;BME280;21998;44.112;12.318;2022-07-29T19:57:51;100777.50;;;26.99;73.61
35900;BME280;21998;44.112;12.318;2022-07-29T20:00:18;100779.63;;;26.89;74.52
35900;BME280;21998;44.112;12.318;2022-07-29T20:02:44;100782.19;;;26.92;75.48
35900;BME280;21998;44.112;12.318;2022-07-29T20:05:11;100781.63;;;26.82;76.48
35900;BME280;21998;44.112;12.318;2022-07-29T20:07:38;100787.09;;;26.79;78.56
35900;BME280;21998;44.112;12.318;2022-07-29T20:10:06;100786.31;;;26.74;76.58
35900;BME280;21998;44.112;12.318;2022-07-29T20:12:32;100784.63;;;26.72;78.94
35900;BME280;21998;44.112;12.318;2022-07-29T20:14:58;100784.22;;;26.56;77.48
35900;BME280;21998;44.112;12.318;2022-07-29T20:17:24;100782.19;;;26.64;79.40
35900;BME280;21998;44.112;12.318;2022-07-29T20:19:51;100793.94;;;26.60;77.42
35900;BME280;21998;44.112;12.318;2022-07-29T20:22:18;100800.19;;;26.62;77.62
35900;BME280;21998;44.112;12.318;2022-07-29T20:24:45;100799.44;;;26.57;78.95
35900;BME280;21998;44.112;12.318;2022-07-29T20:27:12;100800.19;;;26.62;79.40
35900;BME280;21998;44.112;12.318;2022-07-29T20:29:38;100794.00;;;26.58;80.13
35900;BME280;21998;44.112;12.318;2022-07-29T20:32:04;100792.59;;;26.76;76.23
35900;BME280;21998;44.112;12.318;2022-07-29T20:34:31;100791.25;;;26.60;78.71
35900;BME280;21998;44.112;12.318;2022-07-29T20:36:57;100793.81;;;26.64;77.84
35900;BME280;21998;44.112;12.318;2022-07-29T20:39:25;100799.63;;;26.80;75.80
35900;BME280;21998;44.112;12.318;2022-07-29T20:41:51;100794.78;;;26.62;77.26
35900;BME280;21998;44.112;12.318;2022-07-29T20:44:17;100800.22;;;26.60;77.41
35900;BME280;21998;44.112;12.318;2022-07-29T20:46:44;100797.38;;;26.65;76.70
35900;BME280;21998;44.112;12.318;2022-07-29T20:49:10;100801.59;;;26.75;76.04
35900;BME280;21998;44.112;12.318;2022-07-29T20:51:37;100802.63;;;26.69;76.60
35900;BME280;21998;44.112;12.318;2022-07-29T20:54:04;100802.44;;;26.77;75.59
35900;BME280;21998;44.112;12.318;2022-07-29T20:56:30;100805.28;;;26.71;75.64
35900;BME280;21998;44.112;12.318;2022-07-29T20:58:56;100799.84;;;26.73;76.12
35900;BME280;21998;44.112;12.318;2022-07-29T21:01:22;100798.31;;;26.64;77.20
35900;BME280;21998;44.112;12.318;2022-07-29T21:03:48;100796.56;;;26.63;77.92
35900;BME280;21998;44.112;12.318;2022-07-29T21:06:14;100799.63;;;26.80;76.12
35900;BME280;21998;44.112;12.318;2022-07-29T21:08:40;100792.69;;;26.72;76.02
35900;BME280;21998;44.112;12.318;2022-07-29T21:11:07;100792.31;;;26.54;78.10
35900;BME280;21998;44.112;12.318;2022-07-29T21:13:33;100784.44;;;26.48;78.54
35900;BME280;21998;44.112;12.318;2022-07-29T21:16:07;100799.19;;;26.64;77.46
35900;BME280;21998;44.112;12.318;2022-07-29T21:18:45;100801.22;;;26.56;87.39
35900;BME280;21998;44.112;12.318;2022-07-29T21:21:15;100796.63;;;26.60;85.52
35900;BME280;21998;44.112;12.318;2022-07-29T21:23:42;100800.94;;;26.35;90.87
35900;BME280;21998;44.112;12.318;2022-07-29T21:26:09;100814.91;;;26.18;95.00